Terminal Aerodrome Forecast
Issued by NWS

Home | Current Version | Previous Version | Text Only | Print | Product List | Glossary On
Versions: 1 2 3 4 5 6 7 8 9 10 11 12 13 14 15 16 17 18 19
000
FTUS43 KIND 221100 AAA
TAFLAF
TAF AMD
KLAF 221159Z 2212/2312 22005KT P6SM BCFG SKC
     FM221500 22008KT P6SM SCT040
     FM230400 26006KT P6SM VCSH BKN040
     FM230900 33007KT P6SM BKN040
      AMD LTD TO CLD VIS AND WIND TIL 221300=

USA.gov is the U.S. government's official web portal to all federal, state and local government web resources and services.